createdAt,value
2019-03-20T00:01:11.342Z,84.50
2019-03-20T00:03:42.398Z,84.70
2019-03-20T00:06:10.931Z,85.20
2019-03-20T00:08:43.875Z,85.70
2019-03-20T00:11:12.394Z,84.20
2019-03-20T00:13:40.842Z,84.00
2019-03-20T00:16:09.309Z,84.40
2019-03-20T00:18:37.847Z,85.00
2019-03-20T00:21:07.906Z,85.40
2019-03-20T00:23:39.644Z,85.70
2019-03-20T00:26:31.492Z,86.10
2019-03-20T00:28:45.183Z,86.40
2019-03-20T00:31:13.697Z,86.20
2019-03-20T00:33:43.696Z,86.40
2019-03-20T00:36:13.699Z,86.50
2019-03-20T00:38:46.986Z,86.60
2019-03-20T00:41:26.895Z,85.40
2019-03-20T00:43:55.069Z,85.20
2019-03-20T00:46:23.653Z,85.40
2019-03-20T00:48:52.189Z,85.70
2019-03-20T00:51:20.633Z,85.90
2019-03-20T00:53:49.140Z,85.90
2019-03-20T00:56:17.595Z,85.70
2019-03-20T00:58:46.042Z,86.20
2019-03-20T01:01:14.510Z,85.30
2019-03-20T01:03:42.970Z,85.80
2019-03-20T01:06:11.411Z,85.60
2019-03-20T01:08:39.929Z,85.70
2019-03-20T01:11:08.765Z,85.70
2019-03-20T01:13:37.555Z,85.40
2019-03-20T01:16:06.014Z,85.70
2019-03-20T01:18:36.145Z,85.40
2019-03-20T01:21:04.929Z,85.10
2019-03-20T01:23:44.127Z,85.70
2019-03-20T01:26:12.595Z,85.00
2019-03-20T01:28:41.092Z,84.70
2019-03-20T01:31:12.206Z,85.00
2019-03-20T01:33:40.831Z,85.20
2019-03-20T01:36:09.376Z,85.10
2019-03-20T01:38:37.829Z,85.30
2019-03-20T01:41:06.284Z,84.70
2019-03-20T01:43:36.337Z,84.60
2019-03-20T01:46:09.296Z,85.00
2019-03-20T01:48:39.152Z,85.50
2019-03-20T01:51:21.866Z,85.50
2019-03-20T01:53:50.518Z,85.10
2019-03-20T01:56:20.623Z,84.60
2019-03-20T01:58:52.025Z,84.70
2019-03-20T02:01:20.585Z,85.40
2019-03-20T02:03:49.105Z,85.80
2019-03-20T02:06:19.176Z,85.40
2019-03-20T02:08:47.650Z,85.30
2019-03-20T02:11:16.100Z,85.20
2019-03-20T02:13:44.562Z,85.30
2019-03-20T02:16:13.060Z,85.60
2019-03-20T02:18:41.558Z,86.50
2019-03-20T02:21:10.038Z,85.80
2019-03-20T02:23:38.478Z,85.70
2019-03-20T02:26:09.995Z,85.30
2019-03-20T02:28:38.472Z,85.50
2019-03-20T02:31:06.939Z,85.00
2019-03-20T02:33:35.407Z,85.40
2019-03-20T02:36:04.024Z,85.40
2019-03-20T02:38:36.676Z,84.90
2019-03-20T02:41:05.183Z,84.90
2019-03-20T02:43:33.777Z,85.00
2019-03-20T02:46:02.248Z,85.00
2019-03-20T02:48:30.723Z,84.60
2019-03-20T02:50:59.191Z,84.60
2019-03-20T02:53:27.695Z,84.90
2019-03-20T02:55:56.178Z,84.40
2019-03-20T02:58:24.692Z,84.50
2019-03-20T03:00:53.256Z,84.20
2019-03-20T03:03:21.805Z,84.90
2019-03-20T03:05:50.311Z,86.00
2019-03-20T03:08:18.861Z,84.30
2019-03-20T03:10:55.674Z,84.50
2019-03-20T03:13:34.823Z,83.50
2019-03-20T03:16:03.482Z,83.20
2019-03-20T03:18:34.670Z,83.20
2019-03-20T03:21:03.250Z,84.10
2019-03-20T03:23:31.696Z,84.70
2019-03-20T03:26:00.329Z,85.70
2019-03-20T03:28:28.926Z,85.80
2019-03-20T03:30:57.385Z,85.70
2019-03-20T03:33:26.543Z,85.90
2019-03-20T03:35:56.610Z,85.90
2019-03-20T03:38:27.441Z,85.70
2019-03-20T03:40:55.514Z,86.60
2019-03-20T03:43:24.643Z,85.80
2019-03-20T03:45:53.213Z,85.20
2019-03-20T03:48:21.847Z,85.10
2019-03-20T03:50:50.345Z,84.80
2019-03-20T03:53:18.793Z,84.80
2019-03-20T03:55:47.240Z,85.20
2019-03-20T03:58:15.691Z,85.30
2019-03-20T04:00:44.210Z,84.60
2019-03-20T04:03:12.730Z,84.50
2019-03-20T04:05:41.254Z,84.00
2019-03-20T04:08:09.740Z,84.00
2019-03-20T04:10:38.200Z,83.40
2019-03-20T04:13:06.666Z,82.50
2019-03-20T04:15:36.504Z,82.30
2019-03-20T04:18:05.308Z,82.10
2019-03-20T04:20:33.759Z,82.30
2019-03-20T04:23:02.260Z,82.30
2019-03-20T04:25:30.772Z,82.40
2019-03-20T04:27:59.749Z,83.00
2019-03-20T04:30:28.197Z,83.70
2019-03-20T04:32:56.687Z,84.00
2019-03-20T04:35:25.156Z,83.40
2019-03-20T04:37:53.673Z,83.00
2019-03-20T04:40:22.113Z,82.50
2019-03-20T04:42:50.588Z,82.30
2019-03-20T04:45:19.106Z,81.90
2019-03-20T04:47:47.694Z,82.10
2019-03-20T04:50:16.965Z,81.80
2019-03-20T04:52:45.482Z,81.90
2019-03-20T04:55:13.993Z,82.20
2019-03-20T04:57:42.719Z,82.60
2019-03-20T05:00:16.605Z,82.90
2019-03-20T05:02:45.078Z,83.00
2019-03-20T05:05:13.709Z,83.00
2019-03-20T05:07:42.232Z,82.40
2019-03-20T05:10:16.039Z,82.30
2019-03-20T05:12:44.481Z,82.30
2019-03-20T05:15:14.062Z,82.00
2019-03-20T05:17:42.510Z,82.20
2019-03-20T05:20:17.390Z,82.00
2019-03-20T05:22:45.824Z,82.10
2019-03-20T05:25:14.278Z,82.10
2019-03-20T05:27:42.718Z,82.50
2019-03-20T05:30:17.135Z,82.30
2019-03-20T05:32:45.642Z,82.10
2019-03-20T05:35:14.160Z,81.80
2019-03-20T05:37:42.607Z,81.80
2019-03-20T05:40:14.170Z,81.50
2019-03-20T05:42:42.604Z,81.20
2019-03-20T05:45:16.132Z,81.30
2019-03-20T05:47:44.566Z,81.30
2019-03-20T05:50:14.148Z,79.40
2019-03-20T05:52:42.663Z,77.60
2019-03-20T05:55:11.206Z,76.40
2019-03-20T05:57:39.772Z,76.20
2019-03-20T06:00:20.159Z,76.40
2019-03-20T06:02:48.692Z,75.30
2019-03-20T06:05:17.172Z,74.90
2019-03-20T06:07:45.636Z,73.80
2019-03-20T06:10:15.629Z,71.80
2019-03-20T06:12:44.217Z,69.70
2019-03-20T06:15:13.786Z,67.40
2019-03-20T06:17:42.226Z,66.90
2019-03-20T06:20:12.556Z,67.20
2019-03-20T06:22:41.142Z,63.90
2019-03-20T06:25:12.002Z,61.40
2019-03-20T06:27:40.577Z,58.30
2019-03-20T06:30:14.247Z,56.00
2019-03-20T06:32:42.678Z,54.70
2019-03-20T06:35:12.397Z,51.60
2019-03-20T06:37:40.829Z,51.00
2019-03-20T06:40:13.925Z,48.30
2019-03-20T06:42:42.473Z,48.40
2019-03-20T06:45:16.116Z,47.90
2019-03-20T06:47:44.650Z,49.60
2019-03-20T06:50:23.031Z,48.20
2019-03-20T06:52:51.575Z,47.70
2019-03-20T06:55:20.899Z,49.40
2019-03-20T06:57:49.432Z,50.50
2019-03-20T07:00:39.203Z,51.70
2019-03-20T07:03:35.119Z,52.90
2019-03-20T07:06:31.002Z,54.40
2019-03-20T07:09:22.090Z,53.90
2019-03-20T07:11:50.558Z,51.80
2019-03-20T07:14:19.069Z,48.90
2019-03-20T07:19:42.558Z,44.10
2019-03-20T07:22:11.074Z,43.50
2019-03-20T07:24:39.514Z,42.90
2019-03-20T07:27:07.968Z,41.60
2019-03-20T07:29:36.439Z,41.20
2019-03-20T07:32:04.907Z,42.60
2019-03-20T07:34:33.342Z,45.90
2019-03-20T07:37:01.869Z,47.50
2019-03-20T07:39:30.315Z,49.80
2019-03-20T07:41:58.769Z,52.40
2019-03-20T07:44:27.245Z,54.30
2019-03-20T07:46:55.725Z,54.90
2019-03-20T07:49:24.204Z,55.70
2019-03-20T07:51:52.702Z,56.30
2019-03-20T07:54:21.221Z,56.80
2019-03-20T07:56:49.674Z,56.90
2019-03-20T07:59:18.150Z,56.80
2019-03-20T08:01:46.634Z,56.90
2019-03-20T08:04:15.162Z,56.60
2019-03-20T08:06:43.614Z,56.70
2019-03-20T08:09:12.086Z,56.80
2019-03-20T08:11:40.626Z,57.20
2019-03-20T08:14:09.085Z,57.50
2019-03-20T08:16:37.566Z,57.30
2019-03-20T08:19:06.141Z,58.10
2019-03-20T08:21:34.708Z,58.20
2019-03-20T08:24:03.239Z,58.20
2019-03-20T08:26:31.718Z,59.10
2019-03-20T08:29:00.198Z,59.80
2019-03-20T08:31:28.663Z,60.40
2019-03-20T08:33:57.152Z,60.70
2019-03-20T08:36:25.603Z,61.20
2019-03-20T08:38:54.136Z,60.50
2019-03-20T08:41:22.568Z,61.40
2019-03-20T08:43:51.130Z,61.10
2019-03-20T08:46:23.403Z,61.30
2019-03-20T08:48:51.976Z,59.40
2019-03-20T08:51:20.495Z,58.40
2019-03-20T08:53:49.011Z,56.80
2019-03-20T08:56:17.502Z,56.40
2019-03-20T08:58:46.047Z,56.50
2019-03-20T09:01:14.492Z,56.60
2019-03-20T09:03:43.011Z,56.60
2019-03-20T09:06:11.506Z,57.40
2019-03-20T09:08:39.970Z,58.00
2019-03-20T09:11:08.437Z,58.40
2019-03-20T09:13:36.937Z,58.60
2019-03-20T09:16:05.388Z,58.70
2019-03-20T09:18:33.861Z,59.00
2019-03-20T09:21:02.314Z,59.00
2019-03-20T09:23:30.810Z,58.70
2019-03-20T09:25:59.333Z,58.50
2019-03-20T09:28:27.861Z,59.50
2019-03-20T09:30:56.392Z,59.70
2019-03-20T09:33:24.944Z,59.00
2019-03-20T09:35:53.489Z,59.50
2019-03-20T09:38:21.957Z,60.80
2019-03-20T09:40:50.431Z,59.30
2019-03-20T09:43:18.945Z,58.70
2019-03-20T09:45:47.397Z,57.90
2019-03-20T09:48:15.856Z,57.40
2019-03-20T09:50:44.330Z,57.40
2019-03-20T09:53:12.781Z,58.00
2019-03-20T09:55:41.251Z,58.40
2019-03-20T09:58:11.844Z,59.10
2019-03-20T10:00:39.942Z,58.40
2019-03-20T10:03:08.462Z,57.60
2019-03-20T10:05:36.943Z,56.70
2019-03-20T10:08:05.383Z,56.70
2019-03-20T10:10:33.883Z,56.40
2019-03-20T10:13:02.432Z,57.10
2019-03-20T10:15:31.721Z,56.40
2019-03-20T10:18:00.214Z,55.50
2019-03-20T10:20:28.697Z,55.10
2019-03-20T10:22:57.194Z,55.60
2019-03-20T10:25:25.654Z,55.30
2019-03-20T10:27:54.115Z,55.20
2019-03-20T10:30:26.313Z,54.80
2019-03-20T10:32:54.793Z,55.50
2019-03-20T10:35:23.286Z,56.40
2019-03-20T10:37:51.740Z,56.50
2019-03-20T10:40:24.354Z,56.50
2019-03-20T10:42:52.874Z,56.80
2019-03-20T10:45:21.930Z,57.60
2019-03-20T10:47:53.003Z,57.80
2019-03-20T10:50:24.477Z,58.60
2019-03-20T10:52:53.419Z,58.80
2019-03-20T10:55:22.385Z,59.40
2019-03-20T10:57:50.875Z,59.80
2019-03-20T11:00:25.319Z,59.90
2019-03-20T11:02:53.762Z,59.80
2019-03-20T11:05:22.216Z,59.70
2019-03-20T11:07:51.220Z,59.40
2019-03-20T11:10:23.959Z,58.80
2019-03-20T11:12:52.477Z,58.70
2019-03-20T11:15:21.991Z,58.60
2019-03-20T11:17:50.527Z,58.50
2019-03-20T11:20:20.127Z,58.50
2019-03-20T11:22:48.767Z,58.60
2019-03-20T11:25:27.247Z,59.10
2019-03-20T11:27:55.744Z,59.40
2019-03-20T11:30:28.027Z,59.60
2019-03-20T11:32:57.157Z,60.10
2019-03-20T11:35:26.116Z,60.80
2019-03-20T11:37:54.655Z,61.30
2019-03-20T11:40:34.584Z,61.50
2019-03-20T11:43:03.164Z,62.00
2019-03-20T11:45:31.610Z,62.30
2019-03-20T11:48:00.238Z,62.50
2019-03-20T11:50:31.297Z,62.30
2019-03-20T11:52:59.789Z,62.90
2019-03-20T11:55:28.280Z,63.10
2019-03-20T11:57:56.757Z,64.00
2019-03-20T12:00:26.216Z,64.00
2019-03-20T12:02:54.686Z,64.70
2019-03-20T12:05:23.145Z,65.50
2019-03-20T12:07:51.584Z,67.10
2019-03-20T12:10:23.099Z,67.30
2019-03-20T12:12:51.613Z,67.60
2019-03-20T12:15:20.083Z,69.00
2019-03-20T12:17:48.586Z,69.80
2019-03-20T12:20:19.492Z,71.40
2019-03-20T12:22:48.939Z,71.30
2019-03-20T12:25:19.819Z,72.40
2019-03-20T12:27:48.282Z,73.30
2019-03-20T12:30:22.398Z,73.50
2019-03-20T12:32:50.838Z,73.40
2019-03-20T12:35:20.050Z,72.70
2019-03-20T12:37:48.598Z,73.00
2019-03-20T12:40:28.479Z,72.00
2019-03-20T12:42:57.770Z,71.60
2019-03-20T12:45:34.177Z,71.30
2019-03-20T12:48:02.906Z,71.70
2019-03-20T12:50:31.387Z,72.00
2019-03-20T12:53:01.797Z,70.70
2019-03-20T12:55:31.245Z,71.30
2019-03-20T12:57:59.937Z,71.50
2019-03-20T13:00:28.764Z,71.90
2019-03-20T13:02:57.215Z,71.50
2019-03-20T13:05:25.757Z,72.60
2019-03-20T13:07:54.385Z,72.70
2019-03-20T13:10:23.799Z,72.90
2019-03-20T13:12:53.337Z,73.00
2019-03-20T13:15:23.739Z,73.20
2019-03-20T13:17:53.022Z,74.00
2019-03-20T13:20:21.717Z,73.40
2019-03-20T13:22:56.109Z,73.70
2019-03-20T13:25:24.581Z,73.80
2019-03-20T13:27:53.047Z,74.20
2019-03-20T13:30:36.353Z,74.60
2019-03-20T13:33:05.019Z,74.40
2019-03-20T13:35:33.468Z,75.10
2019-03-20T13:38:02.003Z,75.10
2019-03-20T13:40:30.460Z,76.00
2019-03-20T13:42:59.179Z,76.00
2019-03-20T13:45:28.780Z,75.90
2019-03-20T13:47:57.330Z,75.80
2019-03-20T13:50:25.865Z,75.70
2019-03-20T13:52:54.386Z,75.70
2019-03-20T13:55:23.002Z,75.20
2019-03-20T13:57:51.545Z,75.00
2019-03-20T14:00:22.176Z,75.00
2019-03-20T14:02:50.624Z,75.90
2019-03-20T14:05:19.150Z,76.20
2019-03-20T14:07:47.995Z,75.90
2019-03-20T14:10:25.728Z,76.00
2019-03-20T14:12:54.422Z,76.10
2019-03-20T14:15:22.955Z,76.30
2019-03-20T14:17:51.414Z,76.40
2019-03-20T14:20:28.302Z,76.30
2019-03-20T14:22:56.816Z,75.90
2019-03-20T14:25:25.661Z,76.60
2019-03-20T14:27:54.112Z,76.40
2019-03-20T14:30:33.542Z,76.50
2019-03-20T14:33:02.135Z,76.70
2019-03-20T14:35:30.626Z,76.60
2019-03-20T14:37:59.131Z,76.90
2019-03-20T14:40:36.094Z,76.80
2019-03-20T14:43:01.630Z,76.90
2019-03-20T14:45:30.359Z,77.30
2019-03-20T14:47:58.817Z,77.10
2019-03-20T14:50:29.402Z,76.60
2019-03-20T14:52:57.857Z,76.80
2019-03-20T14:55:26.372Z,77.30
2019-03-20T14:57:54.907Z,77.30
2019-03-20T15:00:29.876Z,77.60
2019-03-20T15:02:58.327Z,78.30
2019-03-20T15:05:26.787Z,78.70
2019-03-20T15:07:55.302Z,79.00
2019-03-20T15:10:28.109Z,79.30
2019-03-20T15:12:57.083Z,79.70
2019-03-20T15:15:34.343Z,80.30
2019-03-20T15:18:02.811Z,80.30
2019-03-20T15:20:31.242Z,80.60
2019-03-20T15:22:59.781Z,80.70
2019-03-20T15:25:28.258Z,80.90
2019-03-20T15:27:56.894Z,81.00
2019-03-20T15:30:26.357Z,81.00
2019-03-20T15:32:55.004Z,81.10
2019-03-20T15:35:23.489Z,80.90
2019-03-20T15:37:52.142Z,81.30
2019-03-20T15:40:22.407Z,81.70
2019-03-20T15:42:50.892Z,81.30
2019-03-20T15:45:19.931Z,81.20
2019-03-20T15:47:48.461Z,81.60
2019-03-20T15:50:20.054Z,82.00
2019-03-20T15:52:48.518Z,82.00
2019-03-20T15:55:28.829Z,81.60
2019-03-20T15:57:57.287Z,82.00
2019-03-20T16:00:25.843Z,82.20
2019-03-20T16:03:05.395Z,82.60
2019-03-20T16:05:33.908Z,82.80
2019-03-20T16:08:02.362Z,83.40
2019-03-20T16:10:30.842Z,83.70
2019-03-20T16:12:59.283Z,83.50
2019-03-20T16:15:27.749Z,83.50
2019-03-20T16:17:56.235Z,83.30
2019-03-20T16:20:24.815Z,83.30
2019-03-20T16:22:53.261Z,83.10
2019-03-20T16:25:24.876Z,83.10
2019-03-20T16:27:53.304Z,83.10
2019-03-20T16:30:26.289Z,83.30
2019-03-20T16:32:56.488Z,83.30
2019-03-20T16:35:25.288Z,83.40
2019-03-20T16:37:53.842Z,83.50
2019-03-20T16:40:27.386Z,84.70
2019-03-20T16:42:55.890Z,83.70
2019-03-20T16:45:29.678Z,84.20
2019-03-20T16:47:58.183Z,84.20
2019-03-20T16:50:26.637Z,84.80
2019-03-20T16:52:55.156Z,84.80
2019-03-20T16:55:23.770Z,85.00
2019-03-20T16:57:52.686Z,84.90
2019-03-20T17:00:31.108Z,84.60
2019-03-20T17:02:59.778Z,84.70
2019-03-20T17:05:32.622Z,84.90
2019-03-20T17:08:01.362Z,85.50
2019-03-20T17:10:35.270Z,85.30
2019-03-20T17:13:04.611Z,85.90
2019-03-20T17:15:40.612Z,86.10
2019-03-20T17:18:09.145Z,86.00
2019-03-20T17:20:37.608Z,86.20
2019-03-20T17:23:07.812Z,86.10
2019-03-20T17:25:36.662Z,86.50
2019-03-20T17:28:05.843Z,90.00
2019-03-20T17:30:39.661Z,87.10
2019-03-20T17:33:08.265Z,87.00
2019-03-20T17:35:36.741Z,87.20
2019-03-20T17:38:05.779Z,87.70
2019-03-20T17:40:34.253Z,88.00
2019-03-20T17:43:02.851Z,87.90
2019-03-20T17:45:32.362Z,87.90
2019-03-20T17:48:00.909Z,87.90
2019-03-20T17:50:36.863Z,88.00
2019-03-20T17:53:06.011Z,88.20
2019-03-20T17:55:34.587Z,88.10
2019-03-20T17:58:03.090Z,88.40
2019-03-20T18:00:43.106Z,87.80
2019-03-20T18:03:11.627Z,88.30
2019-03-20T18:05:40.148Z,88.40
2019-03-20T18:08:09.420Z,89.50
2019-03-20T18:10:37.961Z,88.90
2019-03-20T18:13:07.369Z,89.30
2019-03-20T18:15:36.278Z,89.30
2019-03-20T18:18:06.451Z,89.40
2019-03-20T18:20:34.975Z,89.40
2019-03-20T18:23:03.459Z,89.60
2019-03-20T18:25:31.967Z,89.60
2019-03-20T18:28:00.519Z,88.80
2019-03-20T18:30:31.398Z,89.10
2019-03-20T18:32:59.939Z,89.30
2019-03-20T18:35:28.398Z,89.20
2019-03-20T18:37:56.862Z,89.30
2019-03-20T18:40:26.741Z,89.60
2019-03-20T18:42:55.194Z,89.70
2019-03-20T18:45:26.033Z,89.80
2019-03-20T18:47:54.578Z,89.80
2019-03-20T18:50:24.269Z,89.80
2019-03-20T18:52:52.790Z,90.00
2019-03-20T18:55:21.633Z,90.00
2019-03-20T18:57:50.589Z,90.10
2019-03-20T19:00:34.215Z,90.10
2019-03-20T19:03:08.657Z,90.10
2019-03-20T19:05:52.608Z,90.10
2019-03-20T19:08:21.152Z,90.10
2019-03-20T19:10:49.772Z,90.30
2019-03-20T19:13:18.349Z,90.40
2019-03-20T19:15:46.883Z,90.30
2019-03-20T19:18:15.492Z,90.20
2019-03-20T19:20:43.992Z,90.20
2019-03-20T19:23:12.519Z,90.20
2019-03-20T19:25:41.015Z,90.10
2019-03-20T19:28:09.466Z,90.10
2019-03-20T19:30:37.941Z,90.20
2019-03-20T19:33:06.523Z,90.30
2019-03-20T19:35:36.507Z,90.50
2019-03-20T19:38:05.249Z,90.50
2019-03-20T19:40:33.729Z,90.50
2019-03-20T19:43:02.314Z,90.50
2019-03-20T19:45:30.787Z,90.70
2019-03-20T19:47:59.321Z,90.70
2019-03-20T19:50:27.816Z,90.70
2019-03-20T19:52:56.321Z,90.70
2019-03-20T19:55:24.799Z,90.80
2019-03-20T19:57:53.305Z,90.70
2019-03-20T20:00:26.676Z,90.60
2019-03-20T20:02:55.193Z,90.80
2019-03-20T20:05:23.766Z,90.70
2019-03-20T20:07:52.239Z,90.70
2019-03-20T20:10:20.926Z,90.70
2019-03-20T20:12:49.394Z,90.80
2019-03-20T20:15:24.739Z,90.80
2019-03-20T20:17:53.232Z,91.10
2019-03-20T20:20:30.100Z,90.90
2019-03-20T20:22:58.534Z,91.10
2019-03-20T20:25:27.010Z,90.80
2019-03-20T20:27:55.583Z,90.90
2019-03-20T20:30:24.184Z,90.80
2019-03-20T20:32:52.635Z,90.70
2019-03-20T20:35:21.100Z,91.20
2019-03-20T20:37:50.377Z,91.10
2019-03-20T20:40:23.913Z,90.70
2019-03-20T20:42:52.421Z,90.60
2019-03-20T20:45:20.898Z,90.60
2019-03-20T20:48:21.428Z,90.90
2019-03-20T20:50:49.951Z,90.50
2019-03-20T20:53:18.386Z,90.60
2019-03-20T20:55:46.879Z,90.70
2019-03-20T20:58:15.387Z,90.70
2019-03-20T21:00:43.848Z,90.60
2019-03-20T21:03:12.321Z,90.30
2019-03-20T21:05:40.800Z,90.40
2019-03-20T21:08:09.528Z,90.30
2019-03-20T21:10:38.095Z,90.30
2019-03-20T21:13:06.583Z,90.20
2019-03-20T21:15:42.824Z,90.30
2019-03-20T21:18:33.882Z,90.40
2019-03-20T21:21:02.498Z,90.40
2019-03-20T21:23:59.989Z,90.40
2019-03-20T21:26:40.147Z,90.50
2019-03-20T21:29:34.513Z,90.50
2019-03-20T21:32:12.067Z,90.40
2019-03-20T21:34:49.298Z,90.40
2019-03-20T21:37:29.219Z,90.30
2019-03-20T21:39:58.247Z,90.20
2019-03-20T21:42:47.769Z,90.20
2019-03-20T21:45:31.371Z,90.20
2019-03-20T21:47:59.885Z,90.20
2019-03-20T21:51:04.310Z,90.40
2019-03-20T21:53:53.373Z,90.10
2019-03-20T21:56:30.907Z,90.20
2019-03-20T21:59:35.740Z,90.10
2019-03-20T22:02:26.915Z,90.10
2019-03-20T22:04:55.589Z,90.10
2019-03-20T22:07:24.113Z,90.10
2019-03-20T22:09:55.671Z,90.10
2019-03-20T22:12:45.050Z,90.00
2019-03-20T22:15:25.609Z,90.00
2019-03-20T22:18:30.697Z,90.10
2019-03-20T22:21:23.955Z,90.10
2019-03-20T22:24:13.394Z,90.80
2019-03-20T22:26:56.935Z,90.90
2019-03-20T22:29:26.494Z,90.90
2019-03-20T22:32:10.005Z,91.00
2019-03-20T22:34:57.386Z,90.90
2019-03-20T22:37:25.890Z,91.00
2019-03-20T22:40:06.013Z,91.00
2019-03-20T22:42:52.593Z,90.90
2019-03-20T22:45:36.266Z,91.00
2019-03-20T22:48:41.118Z,91.10
2019-03-20T22:51:35.394Z,91.00
2019-03-20T22:54:29.118Z,91.10
2019-03-20T22:57:12.294Z,91.10
2019-03-20T22:59:41.005Z,91.10
2019-03-20T23:02:15.382Z,91.10
2019-03-20T23:04:46.908Z,91.20
2019-03-20T23:07:15.454Z,91.10
2019-03-20T23:09:44.036Z,91.10
2019-03-20T23:12:13.744Z,91.30
2019-03-20T23:14:42.271Z,91.30
2019-03-20T23:17:10.982Z,91.30
2019-03-20T23:19:40.774Z,91.20
2019-03-20T23:22:09.729Z,91.30
2019-03-20T23:24:38.217Z,91.40
2019-03-20T23:27:13.047Z,91.40
2019-03-20T23:29:41.490Z,91.50
2019-03-20T23:32:10.024Z,91.60
2019-03-20T23:34:38.496Z,91.60
2019-03-20T23:37:07.043Z,91.60
2019-03-20T23:39:35.697Z,91.60
2019-03-20T23:42:04.513Z,91.60
2019-03-20T23:44:33.049Z,91.60
2019-03-20T23:47:01.532Z,91.50
2019-03-20T23:49:30.049Z,91.50
2019-03-20T23:51:58.583Z,91.40
2019-03-20T23:54:32.701Z,91.60
2019-03-20T23:57:01.157Z,91.50
2019-03-20T23:59:29.713Z,91.40
